createdAt,value
2023-04-11T00:00:35.094Z,14.45
2023-04-11T00:03:14.001Z,14.44
2023-04-11T00:05:40.652Z,14.45
2023-04-11T00:08:07.301Z,14.58
2023-04-11T00:10:33.909Z,14.55
2023-04-11T00:13:00.536Z,14.46
2023-04-11T00:15:27.155Z,14.58
2023-04-11T00:17:54.003Z,14.70
2023-04-11T00:20:21.450Z,14.44
2023-04-11T00:22:48.299Z,14.24
2023-04-11T00:25:15.105Z,14.37
2023-04-11T00:27:41.615Z,14.15
2023-04-11T00:30:08.649Z,13.90
2023-04-11T00:32:35.511Z,13.92
2023-04-11T00:35:02.080Z,13.94
2023-04-11T00:37:28.648Z,14.01
2023-04-11T00:39:55.762Z,13.98
2023-04-11T00:42:22.257Z,14.06
2023-04-11T00:44:48.956Z,14.12
2023-04-11T00:47:15.658Z,14.13
2023-04-11T00:49:42.480Z,14.12
2023-04-11T00:52:08.985Z,14.04
2023-04-11T00:54:35.584Z,14.06
2023-04-11T00:57:03.603Z,14.12
2023-04-11T00:59:31.116Z,14.17
2023-04-11T01:01:58.524Z,14.08
2023-04-11T01:04:27.884Z,14.15
2023-04-11T01:07:05.172Z,14.17
2023-04-11T01:09:34.228Z,14.16
2023-04-11T01:12:01.310Z,14.06
2023-04-11T01:14:28.793Z,14.08
2023-04-11T01:16:55.655Z,14.12
2023-04-11T01:19:24.168Z,14.10
2023-04-11T01:21:52.577Z,13.98
2023-04-11T01:24:19.277Z,13.99
2023-04-11T01:26:46.113Z,13.96
2023-04-11T01:29:12.743Z,13.96
2023-04-11T01:31:39.322Z,13.98
2023-04-11T01:34:06.127Z,13.93
2023-04-11T01:36:32.742Z,13.93
2023-04-11T01:38:59.679Z,13.99
2023-04-11T01:41:26.651Z,14.00
2023-04-11T01:43:53.238Z,14.03
2023-04-11T01:46:20.179Z,13.92
2023-04-11T01:48:46.787Z,13.96
2023-04-11T01:51:15.255Z,13.86
2023-04-11T01:53:41.835Z,13.89
2023-04-11T01:56:09.253Z,13.75
2023-04-11T01:58:35.705Z,13.72
2023-04-11T02:01:02.425Z,13.69
2023-04-11T02:03:29.152Z,13.65
2023-04-11T02:05:55.975Z,13.70
2023-04-11T02:08:22.976Z,13.78
2023-04-11T02:10:49.520Z,13.71
2023-04-11T02:13:16.127Z,13.77
2023-04-11T02:15:42.867Z,13.76
2023-04-11T02:18:09.523Z,13.85
2023-04-11T02:20:36.129Z,13.70
2023-04-11T02:23:06.086Z,13.61
2023-04-11T02:25:32.792Z,13.54
2023-04-11T02:27:59.757Z,13.46
2023-04-11T02:30:26.251Z,13.57
2023-04-11T02:32:52.930Z,13.46
2023-04-11T02:35:19.888Z,13.53
2023-04-11T02:37:46.421Z,13.50
2023-04-11T02:40:13.015Z,13.57
2023-04-11T02:42:39.571Z,13.58
2023-04-11T02:45:06.801Z,13.58
2023-04-11T02:47:33.342Z,13.49
2023-04-11T02:50:00.073Z,13.37
2023-04-11T02:52:26.593Z,13.34
2023-04-11T02:54:53.096Z,13.28
2023-04-11T02:57:19.582Z,13.30
2023-04-11T02:59:46.084Z,13.40
2023-04-11T03:02:12.644Z,13.34
2023-04-11T03:04:39.783Z,13.18
2023-04-11T03:07:06.441Z,12.96
2023-04-11T03:09:32.989Z,12.69
2023-04-11T03:11:59.499Z,12.45
2023-04-11T03:14:26.009Z,12.40
2023-04-11T03:16:52.522Z,12.26
2023-04-11T03:19:19.036Z,12.28
2023-04-11T03:21:45.561Z,12.20
2023-04-11T03:24:12.238Z,12.31
2023-04-11T03:26:38.744Z,12.47
2023-04-11T03:29:07.354Z,12.37
2023-04-11T03:31:35.283Z,12.39
2023-04-11T03:34:01.937Z,12.36
2023-04-11T03:36:28.637Z,12.29
2023-04-11T03:38:55.524Z,12.36
2023-04-11T03:41:22.178Z,12.33
2023-04-11T03:43:48.712Z,12.35
2023-04-11T03:46:15.310Z,12.39
2023-04-11T03:48:41.875Z,12.33
2023-04-11T03:51:08.433Z,12.43
2023-04-11T03:53:34.965Z,12.25
2023-04-11T03:56:01.556Z,12.39
2023-04-11T03:58:28.045Z,12.43
2023-04-11T04:00:54.587Z,12.69
2023-04-11T04:03:21.313Z,12.57
2023-04-11T04:05:48.050Z,12.59
2023-04-11T04:08:14.600Z,12.54
2023-04-11T04:10:41.093Z,12.46
2023-04-11T04:13:07.571Z,12.52
2023-04-11T04:15:34.028Z,12.45
2023-04-11T04:18:00.648Z,12.28
2023-04-11T04:20:27.141Z,12.41
2023-04-11T04:22:53.624Z,12.36
2023-04-11T04:25:20.217Z,12.34
2023-04-11T04:27:47.321Z,12.07
2023-04-11T04:30:14.436Z,12.02
2023-04-11T04:32:44.196Z,12.04
2023-04-11T04:35:11.672Z,12.08
2023-04-11T04:37:38.235Z,11.79
2023-04-11T04:40:06.113Z,11.70
2023-04-11T04:42:32.620Z,11.72
2023-04-11T04:44:59.093Z,11.78
2023-04-11T04:47:30.752Z,11.68
2023-04-11T04:49:57.897Z,11.70
2023-04-11T04:52:25.320Z,11.59
2023-04-11T04:54:52.608Z,11.79
2023-04-11T04:57:19.221Z,11.55
2023-04-11T04:59:45.833Z,11.41
2023-04-11T05:02:12.416Z,11.43
2023-04-11T05:04:38.974Z,11.48
2023-04-11T05:07:05.468Z,11.56
2023-04-11T05:09:32.029Z,11.46
2023-04-11T05:11:58.516Z,11.43
2023-04-11T05:14:25.102Z,11.42
2023-04-11T05:16:51.609Z,11.41
2023-04-11T05:19:18.228Z,11.48
2023-04-11T05:21:44.748Z,11.54
2023-04-11T05:24:11.372Z,11.47
2023-04-11T05:26:37.891Z,11.53
2023-04-11T05:29:04.493Z,11.29
2023-04-11T05:31:31.001Z,11.23
2023-04-11T05:33:57.783Z,11.17
2023-04-11T05:36:25.464Z,11.14
2023-04-11T05:38:52.053Z,11.20
2023-04-11T05:41:18.567Z,11.03
2023-04-11T05:43:45.196Z,10.97
2023-04-11T05:46:11.708Z,10.94
2023-04-11T05:48:38.416Z,10.95
2023-04-11T05:51:05.162Z,10.71
2023-04-11T05:53:31.674Z,10.73
2023-04-11T05:55:58.246Z,10.78
2023-04-11T05:58:25.236Z,10.94
2023-04-11T06:00:51.729Z,10.77
2023-04-11T06:03:18.386Z,10.94
2023-04-11T06:05:45.049Z,10.97
2023-04-11T06:08:11.611Z,11.15
2023-04-11T06:10:38.138Z,11.04
2023-04-11T06:13:04.636Z,11.05
2023-04-11T06:15:31.236Z,10.98
2023-04-11T06:17:57.941Z,11.13
2023-04-11T06:20:24.697Z,11.42
2023-04-11T06:22:51.392Z,11.51
2023-04-11T06:25:19.453Z,11.56
2023-04-11T06:27:46.638Z,11.54
2023-04-11T06:30:13.546Z,11.77
2023-04-11T06:32:40.188Z,12.00
2023-04-11T06:35:07.072Z,12.18
2023-04-11T06:37:33.599Z,12.28
2023-04-11T06:40:00.344Z,12.42
2023-04-11T06:42:27.153Z,12.35
2023-04-11T06:44:53.748Z,12.35
2023-04-11T06:47:20.468Z,12.24
2023-04-11T06:49:47.033Z,12.35
2023-04-11T06:52:16.662Z,12.47
2023-04-11T06:54:43.152Z,12.44
2023-04-11T06:57:09.735Z,12.58
2023-04-11T06:59:36.357Z,12.58
2023-04-11T07:02:02.991Z,12.57
2023-04-11T07:04:29.602Z,12.52
2023-04-11T07:06:56.324Z,12.37
2023-04-11T07:09:22.942Z,12.35
2023-04-11T07:11:49.550Z,12.49
2023-04-11T07:14:16.090Z,12.34
2023-04-11T07:16:42.601Z,12.33
2023-04-11T07:19:09.120Z,12.47
2023-04-11T07:21:35.638Z,12.53
2023-04-11T07:24:02.457Z,12.71
2023-04-11T07:26:29.030Z,12.59
2023-04-11T07:28:55.690Z,12.31
2023-04-11T07:31:22.363Z,12.49
2023-04-11T07:33:49.037Z,12.50
2023-04-11T07:36:15.559Z,12.51
2023-04-11T07:38:42.272Z,12.87
2023-04-11T07:41:09.166Z,13.07
2023-04-11T07:43:35.808Z,12.56
2023-04-11T07:46:05.256Z,12.52
2023-04-11T07:48:31.791Z,12.88
2023-04-11T07:51:03.156Z,12.99
2023-04-11T07:53:29.687Z,12.80
2023-04-11T07:55:58.627Z,12.89
2023-04-11T07:58:25.247Z,12.71
2023-04-11T08:00:51.776Z,13.03
2023-04-11T08:03:18.422Z,13.08
2023-04-11T08:05:47.076Z,13.20
2023-04-11T08:08:13.672Z,13.47
2023-04-11T08:10:40.306Z,13.59
2023-04-11T08:13:07.878Z,13.77
2023-04-11T08:15:34.473Z,13.64
2023-04-11T08:18:01.226Z,13.67
2023-04-11T08:20:27.941Z,13.61
2023-04-11T08:22:54.530Z,13.68
2023-04-11T08:25:21.595Z,13.50
2023-04-11T08:27:48.373Z,13.51
2023-04-11T08:30:18.100Z,13.77
2023-04-11T08:32:47.271Z,13.93
2023-04-11T08:35:14.044Z,14.03
2023-04-11T08:37:40.674Z,14.19
2023-04-11T08:40:07.694Z,14.14
2023-04-11T08:42:34.774Z,14.14
2023-04-11T08:45:03.766Z,14.02
2023-04-11T08:47:30.343Z,13.91
2023-04-11T08:49:57.070Z,13.78
2023-04-11T08:52:24.306Z,13.89
2023-04-11T08:54:57.310Z,14.18
2023-04-11T08:57:24.597Z,14.48
2023-04-11T08:59:51.315Z,14.57
2023-04-11T09:02:18.040Z,14.85
2023-04-11T09:04:45.048Z,14.88
2023-04-11T09:07:11.776Z,15.05
2023-04-11T09:09:38.401Z,15.29
2023-04-11T09:12:05.495Z,15.37
2023-04-11T09:14:32.514Z,15.47
2023-04-11T09:17:06.939Z,15.47
2023-04-11T09:19:35.092Z,15.63
2023-04-11T09:22:04.116Z,15.52
2023-04-11T09:24:32.017Z,15.26
2023-04-11T09:27:13.750Z,15.34
2023-04-11T09:29:42.565Z,15.39
2023-04-11T09:32:26.913Z,15.65
2023-04-11T09:35:17.193Z,15.46
2023-04-11T09:37:47.254Z,15.16
2023-04-11T09:40:13.807Z,14.76
2023-04-11T09:42:40.815Z,14.59
2023-04-11T09:45:16.875Z,14.95
2023-04-11T09:47:44.950Z,14.84
2023-04-11T09:50:12.047Z,15.13
2023-04-11T09:52:43.449Z,15.34
2023-04-11T09:55:14.607Z,15.54
2023-04-11T09:57:42.639Z,15.65
2023-04-11T10:00:09.654Z,15.79
2023-04-11T10:02:36.404Z,16.14
2023-04-11T10:05:03.081Z,16.15
2023-04-11T10:07:29.929Z,16.48
2023-04-11T10:09:56.591Z,16.85
2023-04-11T10:12:33.006Z,17.38
2023-04-11T10:15:09.258Z,17.42
2023-04-11T10:17:36.191Z,17.42
2023-04-11T10:20:02.802Z,17.49
2023-04-11T10:22:49.623Z,16.94
2023-04-11T10:25:19.247Z,16.91
2023-04-11T10:27:50.488Z,16.62
2023-04-11T10:30:19.393Z,16.47
2023-04-11T10:33:09.630Z,16.48
2023-04-11T10:35:36.548Z,16.28
2023-04-11T10:38:04.139Z,16.08
2023-04-11T10:40:30.744Z,15.65
2023-04-11T10:42:57.235Z,15.45
2023-04-11T10:45:24.823Z,15.28
2023-04-11T10:47:51.540Z,15.16
2023-04-11T10:50:27.985Z,14.93
2023-04-11T10:52:58.808Z,14.95
2023-04-11T10:55:27.426Z,15.05
2023-04-11T10:58:06.742Z,15.09
2023-04-11T11:00:48.300Z,15.06
2023-04-11T11:03:25.375Z,15.39
2023-04-11T11:06:03.450Z,15.17
2023-04-11T11:08:34.779Z,14.99
2023-04-11T11:11:05.942Z,15.04
2023-04-11T11:13:47.823Z,15.06
2023-04-11T11:16:22.317Z,15.34
2023-04-11T11:18:52.021Z,15.31
2023-04-11T11:21:27.914Z,14.94
2023-04-11T11:23:59.954Z,14.94
2023-04-11T11:26:36.389Z,15.22
2023-04-11T11:29:03.002Z,15.54
2023-04-11T11:31:36.093Z,15.74
2023-04-11T11:34:18.408Z,15.58
2023-04-11T11:36:49.435Z,15.60
2023-04-11T11:39:16.001Z,15.79
2023-04-11T11:41:42.599Z,15.54
2023-04-11T11:44:27.274Z,15.57
2023-04-11T11:47:06.717Z,15.69
2023-04-11T11:49:48.141Z,15.83
2023-04-11T11:52:39.597Z,15.08
2023-04-11T11:55:11.200Z,14.96
2023-04-11T11:57:44.332Z,14.82
2023-04-11T12:00:11.473Z,14.44
2023-04-11T12:02:41.510Z,14.70
2023-04-11T12:05:10.996Z,14.58
2023-04-11T12:07:38.438Z,14.60
2023-04-11T12:10:07.066Z,14.97
2023-04-11T12:12:43.041Z,15.32
2023-04-11T12:15:22.827Z,15.34
2023-04-11T12:17:50.590Z,15.32
2023-04-11T12:20:27.274Z,15.29
2023-04-11T12:23:00.467Z,15.20
2023-04-11T12:25:29.315Z,15.08
2023-04-11T12:27:55.849Z,15.00
2023-04-11T12:30:22.365Z,14.70
2023-04-11T12:32:48.910Z,14.57
2023-04-11T12:35:15.594Z,14.01
2023-04-11T12:37:42.120Z,14.04
2023-04-11T12:40:08.835Z,14.24
2023-04-11T12:42:41.967Z,14.65
2023-04-11T12:45:13.404Z,14.50
2023-04-11T12:47:40.773Z,14.37
2023-04-11T12:50:08.348Z,14.23
2023-04-11T12:52:35.066Z,14.36
2023-04-11T12:55:01.867Z,14.28
2023-04-11T12:57:28.506Z,14.63
2023-04-11T12:59:54.987Z,14.60
2023-04-11T13:02:21.656Z,14.52
2023-04-11T13:04:49.759Z,14.48
2023-04-11T13:07:16.390Z,14.42
2023-04-11T13:09:43.214Z,14.40
2023-04-11T13:12:09.721Z,14.97
2023-04-11T13:14:36.222Z,15.63
2023-04-11T13:17:02.889Z,16.22
2023-04-11T13:19:29.699Z,16.79
2023-04-11T13:21:56.345Z,16.89
2023-04-11T13:24:22.918Z,16.97
2023-04-11T13:26:49.440Z,16.96
2023-04-11T13:29:15.987Z,16.93
2023-04-11T13:31:42.534Z,16.55
2023-04-11T13:34:09.055Z,16.60
2023-04-11T13:36:35.808Z,16.71
2023-04-11T13:39:02.478Z,16.57
2023-04-11T13:41:28.975Z,16.20
2023-04-11T13:43:55.598Z,15.92
2023-04-11T13:46:22.081Z,16.00
2023-04-11T13:48:48.758Z,16.44
2023-04-11T13:51:15.380Z,16.18
2023-04-11T13:53:41.929Z,16.09
2023-04-11T13:56:08.648Z,16.15
2023-04-11T13:58:35.226Z,15.89
2023-04-11T14:01:01.816Z,16.24
2023-04-11T14:03:29.208Z,16.23
2023-04-11T14:05:55.818Z,16.48
2023-04-11T14:08:22.362Z,16.34
2023-04-11T14:10:48.848Z,16.10
2023-04-11T14:13:15.487Z,16.47
2023-04-11T14:15:42.342Z,16.62
2023-04-11T14:18:10.180Z,16.25
2023-04-11T14:20:36.977Z,15.88
2023-04-11T14:23:03.777Z,15.99
2023-04-11T14:25:30.299Z,16.06
2023-04-11T14:27:57.847Z,15.39
2023-04-11T14:30:24.396Z,15.48
2023-04-11T14:32:51.126Z,15.27
2023-04-11T14:35:17.652Z,15.39
2023-04-11T14:37:44.252Z,15.83
2023-04-11T14:40:11.495Z,15.93
2023-04-11T14:42:38.216Z,15.53
2023-04-11T14:45:05.491Z,15.69
2023-04-11T14:47:32.801Z,15.52
2023-04-11T14:50:00.514Z,16.06
2023-04-11T14:52:29.940Z,16.26
2023-04-11T14:54:56.454Z,16.57
2023-04-11T14:57:22.954Z,16.34
2023-04-11T14:59:49.446Z,16.30
2023-04-11T15:02:16.074Z,16.61
2023-04-11T15:04:42.767Z,16.50
2023-04-11T15:07:09.336Z,16.71
2023-04-11T15:09:35.929Z,16.83
2023-04-11T15:12:02.662Z,17.07
2023-04-11T15:14:29.498Z,17.20
2023-04-11T15:16:56.493Z,17.20
2023-04-11T15:19:23.054Z,17.12
2023-04-11T15:21:49.555Z,17.14
2023-04-11T15:24:16.057Z,17.13
2023-04-11T15:26:43.331Z,16.87
2023-04-11T15:29:14.057Z,16.80
2023-04-11T15:31:40.590Z,16.61
2023-04-11T15:34:07.257Z,16.80
2023-04-11T15:36:34.471Z,16.93
2023-04-11T15:39:01.072Z,16.63
2023-04-11T15:41:27.572Z,16.68
2023-04-11T15:43:54.254Z,17.10
2023-04-11T15:46:21.020Z,16.70
2023-04-11T15:48:47.611Z,16.71
2023-04-11T15:51:14.147Z,16.95
2023-04-11T15:53:40.650Z,16.95
2023-04-11T15:56:07.741Z,17.31
2023-04-11T15:58:34.272Z,17.29
2023-04-11T16:01:00.875Z,17.19
2023-04-11T16:03:28.184Z,17.16
2023-04-11T16:05:54.740Z,17.02
2023-04-11T16:08:21.249Z,17.13
2023-04-11T16:10:47.926Z,16.87
2023-04-11T16:13:14.478Z,16.51
2023-04-11T16:15:41.108Z,16.41
2023-04-11T16:18:07.720Z,16.36
2023-04-11T16:20:34.425Z,15.93
2023-04-11T16:23:00.975Z,15.86
2023-04-11T16:25:27.627Z,15.86
2023-04-11T16:27:54.137Z,15.95
2023-04-11T16:30:21.624Z,15.96
2023-04-11T16:32:48.630Z,16.09
2023-04-11T16:35:15.255Z,16.03
2023-04-11T16:37:41.805Z,16.01
2023-04-11T16:40:08.833Z,15.74
2023-04-11T16:42:35.367Z,15.94
2023-04-11T16:45:01.894Z,16.01
2023-04-11T16:47:28.985Z,15.57
2023-04-11T16:49:56.112Z,15.58
2023-04-11T16:52:22.805Z,15.44
2023-04-11T16:54:50.312Z,15.58
2023-04-11T16:57:16.811Z,15.33
2023-04-11T16:59:43.316Z,15.01
2023-04-11T17:02:09.884Z,14.78
2023-04-11T17:04:36.485Z,14.71
2023-04-11T17:07:03.003Z,14.54
2023-04-11T17:09:29.914Z,14.50
2023-04-11T17:11:56.453Z,14.34
2023-04-11T17:14:23.012Z,14.49
2023-04-11T17:16:49.486Z,14.59
2023-04-11T17:19:15.994Z,14.43
2023-04-11T17:21:42.481Z,14.42
2023-04-11T17:24:09.156Z,14.47
2023-04-11T17:26:35.660Z,14.51
2023-04-11T17:29:02.197Z,14.48
2023-04-11T17:31:28.865Z,14.25
2023-04-11T17:33:55.755Z,14.11
2023-04-11T17:36:22.572Z,14.19
2023-04-11T17:38:49.184Z,14.18
2023-04-11T17:41:15.930Z,14.03
2023-04-11T17:43:43.366Z,13.79
2023-04-11T17:46:10.187Z,13.96
2023-04-11T17:48:36.917Z,13.94
2023-04-11T17:51:04.697Z,14.23
2023-04-11T17:53:31.670Z,13.98
2023-04-11T17:55:58.226Z,13.92
2023-04-11T17:58:24.831Z,13.85
2023-04-11T18:00:56.287Z,13.85
2023-04-11T18:03:24.308Z,13.85
2023-04-11T18:05:51.135Z,13.96
2023-04-11T18:08:17.764Z,13.81
2023-04-11T18:10:44.241Z,13.83
2023-04-11T18:13:10.873Z,13.98
2023-04-11T18:15:37.495Z,14.23
2023-04-11T18:18:04.174Z,14.15
2023-04-11T18:20:30.825Z,14.19
2023-04-11T18:22:57.531Z,14.19
2023-04-11T18:25:24.185Z,14.32
2023-04-11T18:27:50.831Z,14.35
2023-04-11T18:30:17.458Z,14.42
2023-04-11T18:32:47.801Z,14.49
2023-04-11T18:35:15.997Z,14.46
2023-04-11T18:37:42.561Z,14.45
2023-04-11T18:40:10.555Z,14.54
2023-04-11T18:42:38.662Z,14.04
2023-04-11T18:45:05.723Z,14.09
2023-04-11T18:47:32.381Z,13.74
2023-04-11T18:49:58.953Z,13.61
2023-04-11T18:52:26.602Z,13.75
2023-04-11T18:54:55.127Z,13.92
2023-04-11T18:57:21.687Z,14.00
2023-04-11T19:02:15.836Z,14.04
2023-04-11T19:04:44.249Z,14.07
2023-04-11T19:07:10.932Z,14.07
2023-04-11T19:09:37.438Z,14.05
2023-04-11T19:12:04.465Z,14.11
2023-04-11T19:14:30.968Z,14.16
2023-04-11T19:16:57.597Z,14.13
2023-04-11T19:19:24.194Z,14.07
2023-04-11T19:21:50.751Z,14.10
2023-04-11T19:24:17.351Z,13.66
2023-04-11T19:26:43.860Z,13.42
2023-04-11T19:29:10.623Z,13.47
2023-04-11T19:31:37.158Z,13.46
2023-04-11T19:34:03.743Z,13.36
2023-04-11T19:36:32.763Z,13.31
2023-04-11T19:38:59.618Z,13.43
2023-04-11T19:41:26.686Z,13.45
2023-04-11T19:43:53.295Z,13.40
2023-04-11T19:46:19.878Z,12.92
2023-04-11T19:48:46.508Z,12.79
2023-04-11T19:51:13.120Z,12.55
2023-04-11T19:53:39.686Z,12.66
2023-04-11T19:56:07.758Z,12.75
2023-04-11T19:58:34.476Z,12.38
2023-04-11T20:01:10.048Z,12.43
2023-04-11T20:03:36.980Z,12.35
2023-04-11T20:06:05.644Z,12.50
2023-04-11T20:08:32.373Z,12.63
2023-04-11T20:10:59.012Z,12.62
2023-04-11T20:13:25.545Z,12.78
2023-04-11T20:15:52.212Z,12.88
2023-04-11T20:18:18.721Z,12.77
2023-04-11T20:20:45.366Z,13.02
2023-04-11T20:23:11.885Z,13.19
2023-04-11T20:25:38.402Z,13.34
2023-04-11T20:28:04.969Z,13.45
2023-04-11T20:30:31.567Z,13.37
2023-04-11T20:32:58.172Z,13.06
2023-04-11T20:35:24.796Z,13.16
2023-04-11T20:37:51.341Z,12.68
2023-04-11T20:40:17.870Z,12.60
2023-04-11T20:42:44.695Z,12.82
2023-04-11T20:45:12.853Z,12.79
2023-04-11T20:47:40.484Z,12.64
2023-04-11T20:50:09.079Z,12.34
2023-04-11T20:52:36.551Z,12.29
2023-04-11T20:55:04.097Z,12.10
2023-04-11T20:57:30.805Z,12.21
2023-04-11T20:59:58.002Z,11.96
2023-04-11T21:02:25.164Z,11.82
2023-04-11T21:04:52.183Z,11.92
2023-04-11T21:07:21.881Z,11.96
2023-04-11T21:09:48.849Z,11.79
2023-04-11T21:12:15.950Z,11.40
2023-04-11T21:14:42.445Z,11.61
2023-04-11T21:17:11.990Z,11.66
2023-04-11T21:19:38.501Z,11.53
2023-04-11T21:22:05.710Z,11.81
2023-04-11T21:24:33.335Z,11.81
2023-04-11T21:27:02.914Z,11.90
2023-04-11T21:29:29.460Z,11.90
2023-04-11T21:31:55.957Z,11.98
2023-04-11T21:34:22.620Z,12.10
2023-04-11T21:36:50.392Z,12.16
2023-04-11T21:39:16.915Z,12.50
2023-04-11T21:41:43.448Z,12.55
2023-04-11T21:44:10.061Z,12.71
2023-04-11T21:46:37.054Z,12.86
2023-04-11T21:49:03.624Z,12.95
2023-04-11T21:51:30.232Z,12.92
2023-04-11T21:53:59.484Z,12.95
2023-04-11T21:56:26.431Z,12.92
2023-04-11T21:58:52.904Z,12.77
2023-04-11T22:01:19.493Z,12.75
2023-04-11T22:03:46.238Z,12.59
2023-04-11T22:06:12.963Z,12.70
2023-04-11T22:08:39.540Z,12.63
2023-04-11T22:11:06.584Z,12.86
2023-04-11T22:13:33.427Z,12.68
2023-04-11T22:15:59.916Z,12.89
2023-04-11T22:18:26.580Z,12.92
2023-04-11T22:20:53.562Z,13.08
2023-04-11T22:23:20.433Z,13.08
2023-04-11T22:25:47.605Z,13.08
2023-04-11T22:28:14.536Z,13.18
2023-04-11T22:30:41.043Z,13.18
2023-04-11T22:33:07.740Z,13.24
2023-04-11T22:35:34.291Z,13.20
2023-04-11T22:38:00.810Z,13.26
2023-04-11T22:40:27.348Z,13.14
2023-04-11T22:42:53.829Z,13.00
2023-04-11T22:45:21.692Z,12.91
2023-04-11T22:47:48.619Z,12.73
2023-04-11T22:50:15.133Z,12.98
2023-04-11T22:52:41.800Z,12.98
2023-04-11T22:55:10.218Z,13.05
2023-04-11T22:57:39.806Z,12.99
2023-04-11T23:00:07.186Z,12.92
2023-04-11T23:02:34.923Z,12.83
2023-04-11T23:05:02.411Z,12.92
2023-04-11T23:07:29.587Z,12.73
2023-04-11T23:09:56.242Z,12.85
2023-04-11T23:12:22.777Z,12.94
2023-04-11T23:14:49.287Z,12.94
2023-04-11T23:17:15.961Z,12.98
2023-04-11T23:19:44.395Z,13.06
2023-04-11T23:22:10.952Z,13.00
2023-04-11T23:24:37.437Z,13.01
2023-04-11T23:27:04.048Z,13.08
2023-04-11T23:29:30.642Z,13.10
2023-04-11T23:31:57.173Z,13.09
2023-04-11T23:34:26.664Z,13.11
2023-04-11T23:36:53.264Z,12.97
2023-04-11T23:39:19.749Z,13.00
2023-04-11T23:41:46.748Z,13.04
2023-04-11T23:44:14.041Z,13.04
2023-04-11T23:46:40.612Z,12.94
2023-04-11T23:49:07.396Z,12.91
2023-04-11T23:51:33.869Z,12.88
2023-04-11T23:54:00.638Z,12.98
2023-04-11T23:56:27.452Z,12.90
2023-04-11T23:58:53.950Z,13.05
